Time;durP1;ratioP1;P1;durP2;ratioP2;P2;SDS_P1;SDS_P2;PMS_P1;PMS_P2;Temp;Humidity;BMP_temperature;BMP_pressure;BME280_temperature;BME280_humidity;BME280_pressure;Samples;Min_cycle;Max_cycle;Signal;HPM_P1;HPM_P2
2023/01/07 00:01:21;;;;;;;25.17;20.77;;;10.10;99.90;;;;;;4992222;28;20049;-52
2023/01/07 00:03:47;;;;;;;26.67;23.02;;;10.10;99.90;;;;;;4986922;28;20069;-51
2023/01/07 00:06:16;;;;;;;25.10;22.35;;;10.10;99.90;;;;;;4984113;28;20066;-48
2023/01/07 00:08:42;;;;;;;;;;;10.10;99.90;;;;;;4986742;28;20050;-49
2023/01/07 00:11:11;;;;;;;26.95;22.50;;;10.00;99.90;;;;;;4986943;28;20028;-49
2023/01/07 00:13:37;;;;;;;26.52;22.63;;;10.10;99.90;;;;;;4982134;28;20777;-50
2023/01/07 00:16:06;;;;;;;27.67;23.95;;;10.10;99.90;;;;;;4977558;28;20079;-49
2023/01/07 00:18:33;;;;;;;28.70;23.55;;;10.10;99.90;;;;;;4977144;28;20102;-48
2023/01/07 00:21:00;;;;;;;29.20;23.67;;;10.10;99.90;;;;;;4984076;28;20243;-48
2023/01/07 00:23:27;;;;;;;30.65;24.15;;;10.10;99.90;;;;;;4995416;28;20464;-48
2023/01/07 00:26:18;;;;;;;29.88;24.98;;;10.10;99.90;;;;;;4996420;28;20061;-48
2023/01/07 00:28:45;;;;;;;27.58;24.48;;;10.20;99.90;;;;;;4991832;28;20095;-48
2023/01/07 00:31:13;;;;;;;30.48;24.60;;;10.20;99.90;;;;;;4987564;28;20038;-47
2023/01/07 00:34:05;;;;;;;;;;;10.10;99.90;;;;;;4977190;28;20046;-48
2023/01/07 00:36:40;;;;;;;30.05;25.23;;;10.20;99.90;;;;;;4991383;28;19930;-49
2023/01/07 00:39:10;;;;;;;28.35;24.42;;;10.10;99.90;;;;;;4984530;28;20074;-49
2023/01/07 00:41:36;;;;;;;32.05;25.70;;;10.20;99.90;;;;;;4989008;28;20039;-48
2023/01/07 00:44:03;;;;;;;31.10;26.30;;;10.10;99.90;;;;;;4983968;28;20034;-48
2023/01/07 00:46:29;;;;;;;31.15;25.00;;;10.20;99.90;;;;;;4986079;28;20043;-51
2023/01/07 00:48:55;;;;;;;29.15;25.48;;;10.20;99.90;;;;;;5000292;28;20040;-49
2023/01/07 00:51:20;;;;;;;28.35;25.17;;;10.20;99.90;;;;;;4991320;28;20077;-48
2023/01/07 00:53:46;;;;;;;28.88;25.60;;;10.20;99.90;;;;;;4990713;28;20454;-50
2023/01/07 00:56:13;;;;;;;28.63;24.45;;;10.20;99.90;;;;;;4985404;28;20035;-49
2023/01/07 00:58:39;;;;;;;31.25;25.10;;;10.20;99.90;;;;;;4987177;28;20117;-50
2023/01/07 01:01:04;;;;;;;30.70;25.10;;;10.20;99.90;;;;;;4983053;28;20428;-48
2023/01/07 01:03:31;;;;;;;32.75;25.33;;;10.20;99.90;;;;;;4984476;28;20043;-48
2023/01/07 01:06:11;;;;;;;30.60;25.60;;;10.20;99.90;;;;;;4987900;28;20050;-48
2023/01/07 01:08:39;;;;;;;31.58;25.67;;;10.20;99.90;;;;;;4983828;28;20034;-51
2023/01/07 01:11:06;;;;;;;29.40;24.77;;;10.30;99.90;;;;;;4982418;28;20031;-48
2023/01/07 01:13:33;;;;;;;29.63;24.15;;;10.20;99.90;;;;;;4984320;28;20050;-50
2023/01/07 01:15:58;;;;;;;30.08;24.27;;;10.30;99.90;;;;;;4989921;28;20576;-48
2023/01/07 01:18:24;;;;;;;32.13;24.33;;;10.30;99.90;;;;;;4983951;28;20145;-50
2023/01/07 01:20:50;;;;;;;32.85;24.90;;;10.20;99.90;;;;;;4985869;28;20164;-48
2023/01/07 01:23:15;;;;;;;28.92;24.00;;;10.20;99.90;;;;;;4984672;28;20492;-49
2023/01/07 01:25:41;;;;;;;28.98;23.67;;;10.20;99.90;;;;;;4984436;28;20034;-49
2023/01/07 01:28:06;;;;;;;30.50;24.55;;;10.20;99.90;;;;;;4988803;28;20053;-49
2023/01/07 01:30:32;;;;;;;27.02;22.58;;;10.20;99.90;;;;;;4986844;28;20117;-49
2023/01/07 01:32:58;;;;;;;33.65;23.30;;;10.20;99.90;;;;;;4992375;28;20038;-48
2023/01/07 01:35:24;;;;;;;27.10;22.10;;;10.20;99.90;;;;;;4985929;28;20045;-50
2023/01/07 01:37:50;;;;;;;24.73;22.02;;;10.20;99.90;;;;;;4985218;28;20495;-48
2023/01/07 01:40:15;;;;;;;25.58;22.27;;;10.30;99.90;;;;;;4984454;28;20066;-48
2023/01/07 01:42:41;;;;;;;29.30;22.98;;;10.20;99.90;;;;;;4988910;28;20390;-48
2023/01/07 01:45:08;;;;;;;25.08;21.17;;;10.30;99.90;;;;;;4992356;28;20445;-48
2023/01/07 01:47:52;;;;;;;24.67;21.23;;;10.30;99.90;;;;;;4998849;28;20046;-48
2023/01/07 01:50:36;;;;;;;22.00;19.52;;;10.30;99.90;;;;;;4982716;28;20042;-50
2023/01/07 01:53:24;;;;;;;23.98;21.13;;;10.30;99.90;;;;;;4978556;28;20054;-49
2023/01/07 01:56:16;;;;;;;24.30;20.42;;;10.20;99.90;;;;;;4982446;28;20057;-48
2023/01/07 01:58:46;;;;;;;25.67;20.77;;;10.20;99.90;;;;;;4982078;28;20050;-49
2023/01/07 02:01:12;;;;;;;24.08;20.83;;;10.20;99.90;;;;;;4978224;28;20051;-48
2023/01/07 02:03:38;;;;;;;26.80;22.08;;;10.30;99.90;;;;;;4979253;28;20485;-49
2023/01/07 02:06:08;;;;;;;25.48;20.83;;;10.30;99.90;;;;;;4979452;28;20038;-48
2023/01/07 02:08:33;;;;;;;24.02;20.58;;;10.20;99.90;;;;;;4981594;28;20050;-50
2023/01/07 02:11:30;;;;;;;25.35;20.60;;;10.20;99.90;;;;;;4979213;28;20042;-49
2023/01/07 02:14:19;;;;;;;23.60;20.15;;;10.20;99.90;;;;;;4983795;28;20495;-48
2023/01/07 02:17:16;;;;;;;22.70;20.30;;;10.30;99.90;;;;;;4986541;28;20078;-52
2023/01/07 02:19:54;;;;;;;22.75;19.48;;;10.20;99.90;;;;;;4983633;28;20453;-48
2023/01/07 02:22:31;;;;;;;25.73;20.00;;;10.30;99.90;;;;;;4985771;28;20054;-48
2023/01/07 02:25:28;;;;;;;25.10;20.00;;;10.30;99.90;;;;;;4984545;28;20042;-50
2023/01/07 02:28:31;;;;;;;22.67;20.35;;;10.20;99.90;;;;;;4957551;28;20489;-48
2023/01/07 02:31:45;;;;;;;23.67;19.55;;;10.20;99.90;;;;;;4986408;28;20077;-48
2023/01/07 02:34:19;;;;;;;20.50;18.38;;;10.20;99.90;;;;;;4982430;28;20056;-49
2023/01/07 02:37:20;;;;;;;20.10;17.85;;;10.30;99.90;;;;;;4984704;28;20149;-49
2023/01/07 02:39:49;;;;;;;22.20;18.50;;;10.30;99.90;;;;;;4947901;28;20082;-48
2023/01/07 02:42:20;;;;;;;21.40;18.42;;;10.30;99.90;;;;;;4982692;28;20049;-49
2023/01/07 02:44:52;;;;;;;22.65;19.73;;;10.20;99.90;;;;;;4986194;28;20104;-48
2023/01/07 02:47:53;;;;;;;21.55;19.25;;;10.30;99.90;;;;;;4985237;28;20121;-48
2023/01/07 02:50:18;;;;;;;21.67;18.88;;;10.20;99.90;;;;;;4961694;28;20051;-49
2023/01/07 02:52:44;;;;;;;21.05;18.60;;;10.20;99.90;;;;;;4985899;28;20093;-48
2023/01/07 02:55:16;;;;;;;21.48;19.17;;;10.20;99.90;;;;;;4982537;28;20104;-48
2023/01/07 02:57:57;;;;;;;22.08;18.50;;;10.20;99.90;;;;;;4985034;28;20397;-48
2023/01/07 03:00:46;;;;;;;21.13;18.58;;;10.20;99.90;;;;;;4984150;28;20042;-48
2023/01/07 03:03:47;;;;;;;23.52;19.08;;;10.20;99.90;;;;;;4979194;28;20480;-48
2023/01/07 03:06:45;;;;;;;20.60;18.10;;;10.20;99.90;;;;;;4892656;29;20053;-49
2023/01/07 03:09:31;;;;;;;20.98;17.42;;;10.20;99.90;;;;;;4897394;29;20099;-51
2023/01/07 03:12:20;;;;;;;20.30;17.88;;;10.10;99.90;;;;;;4895987;29;20139;-48
2023/01/07 03:15:10;;;;;;;20.00;17.92;;;10.10;99.90;;;;;;4900083;29;20054;-48
2023/01/07 03:17:58;;;;;;;20.48;17.63;;;10.00;99.90;;;;;;4897181;29;20155;-48
2023/01/07 03:20:24;;;;;;;20.42;16.48;;;10.00;99.90;;;;;;4896429;29;20575;-49
2023/01/07 03:22:52;;;;;;;20.02;17.23;;;10.00;99.90;;;;;;4896835;29;20190;-48
2023/01/07 03:25:22;;;;;;;19.13;17.13;;;10.00;99.90;;;;;;4902485;29;20070;-48
2023/01/07 03:27:49;;;;;;;18.23;16.35;;;10.00;99.90;;;;;;4899052;29;20044;-50
2023/01/07 03:30:17;;;;;;;18.50;16.65;;;10.00;99.90;;;;;;4896003;29;20111;-48
2023/01/07 03:32:51;;;;;;;19.02;15.55;;;10.00;99.90;;;;;;4892721;29;20040;-48
2023/01/07 03:35:19;;;;;;;18.60;16.80;;;10.00;99.90;;;;;;4890516;29;20051;-52
2023/01/07 03:37:46;;;;;;;18.27;15.50;;;10.00;99.90;;;;;;4907783;29;20111;-51
2023/01/07 03:40:12;;;;;;;17.00;15.30;;;10.00;99.90;;;;;;4897745;29;20044;-49
2023/01/07 03:42:41;;;;;;;16.58;14.55;;;10.00;99.90;;;;;;4914667;28;20057;-52
2023/01/07 03:45:13;;;;;;;16.27;14.25;;;10.10;99.90;;;;;;4977220;28;20133;-49
2023/01/07 03:47:43;;;;;;;16.08;14.40;;;10.10;99.90;;;;;;4987412;28;20131;-50
2023/01/07 03:50:09;;;;;;;18.48;13.90;;;10.10;99.90;;;;;;4986447;28;20042;-51
2023/01/07 03:52:35;;;;;;;17.52;14.02;;;10.10;99.90;;;;;;4990859;28;20117;-50
2023/01/07 03:55:00;;;;;;;16.60;13.45;;;10.10;99.90;;;;;;4989032;28;20138;-48
2023/01/07 03:57:28;;;;;;;14.75;13.10;;;10.00;99.90;;;;;;4990923;28;20042;-51
2023/01/07 03:59:53;;;;;;;17.97;13.33;;;10.10;99.90;;;;;;4985730;28;20165;-48
2023/01/07 04:02:19;;;;;;;17.02;13.32;;;10.10;99.90;;;;;;4986467;28;20054;-51
2023/01/07 04:04:44;;;;;;;15.07;12.65;;;10.10;99.90;;;;;;4990132;28;20539;-48
2023/01/07 04:07:10;;;;;;;15.90;12.68;;;10.10;99.90;;;;;;4988031;28;20043;-48
2023/01/07 04:09:35;;;;;;;13.43;12.13;;;10.10;99.90;;;;;;4990209;28;20117;-48
2023/01/07 04:12:01;;;;;;;13.60;12.20;;;10.10;99.90;;;;;;4983660;28;20089;-48
2023/01/07 04:14:27;;;;;;;13.77;12.38;;;10.00;99.90;;;;;;4986788;28;20047;-48
2023/01/07 04:16:52;;;;;;;13.40;11.82;;;10.00;99.90;;;;;;4985927;28;20042;-48
2023/01/07 04:19:19;;;;;;;17.48;11.68;;;10.10;99.90;;;;;;4985986;28;20092;-48
2023/01/07 04:21:44;;;;;;;13.13;11.82;;;10.10;99.90;;;;;;4980944;28;20041;-49
2023/01/07 04:24:10;;;;;;;12.98;11.63;;;10.10;99.90;;;;;;4988696;28;20038;-50
2023/01/07 04:26:35;;;;;;;15.70;11.43;;;10.00;99.90;;;;;;4989700;28;20180;-49
2023/01/07 04:29:01;;;;;;;11.55;10.40;;;10.00;99.90;;;;;;4987031;28;20129;-49
2023/01/07 04:31:27;;;;;;;13.90;11.35;;;10.00;99.90;;;;;;4984853;28;20054;-48
2023/01/07 04:33:52;;;;;;;12.60;10.80;;;10.00;99.90;;;;;;4985372;28;20136;-48
2023/01/07 04:36:18;;;;;;;12.93;10.93;;;10.00;99.90;;;;;;4980636;28;20129;-48
2023/01/07 04:38:44;;;;;;;13.52;10.88;;;10.00;99.90;;;;;;4989719;28;20121;-49
2023/01/07 04:41:09;;;;;;;11.85;9.68;;;10.00;99.90;;;;;;4983520;28;20050;-50
2023/01/07 04:43:35;;;;;;;13.30;10.13;;;10.00;99.90;;;;;;4987872;28;20034;-48
2023/01/07 04:46:01;;;;;;;12.27;9.90;;;10.00;99.90;;;;;;4990526;28;20146;-50
2023/01/07 04:48:28;;;;;;;11.70;9.95;;;9.90;99.90;;;;;;4989674;28;20069;-48
2023/01/07 04:50:53;;;;;;;12.27;10.13;;;10.00;99.90;;;;;;4992826;28;20046;-49
2023/01/07 04:53:19;;;;;;;11.95;9.85;;;9.90;99.90;;;;;;4985849;28;20046;-48
2023/01/07 04:55:44;;;;;;;11.63;9.20;;;9.90;99.90;;;;;;4985796;28;20050;-49
2023/01/07 04:58:10;;;;;;;11.55;9.98;;;9.90;99.90;;;;;;4982498;28;20049;-53
2023/01/07 05:00:36;;;;;;;11.20;9.23;;;9.90;99.90;;;;;;4984395;28;20349;-48
2023/01/07 05:03:01;;;;;;;10.07;9.00;;;9.90;99.90;;;;;;4992696;28;20392;-48
2023/01/07 05:05:27;;;;;;;10.30;9.20;;;9.90;99.90;;;;;;4990440;28;20314;-48
2023/01/07 05:07:52;;;;;;;12.40;9.43;;;9.80;99.90;;;;;;4981948;28;20046;-48
2023/01/07 05:10:18;;;;;;;10.15;8.80;;;9.90;99.90;;;;;;4981218;28;20038;-49
2023/01/07 05:12:44;;;;;;;10.38;8.35;;;9.90;99.90;;;;;;4985331;28;20055;-48
2023/01/07 05:15:10;;;;;;;11.63;8.95;;;9.80;99.90;;;;;;4984710;28;20070;-48
2023/01/07 05:17:35;;;;;;;9.90;8.82;;;9.80;99.90;;;;;;4980062;28;20130;-51
2023/01/07 05:20:01;;;;;;;9.68;8.68;;;9.90;99.90;;;;;;4979734;28;20043;-50
2023/01/07 05:22:26;;;;;;;9.35;8.15;;;9.80;99.90;;;;;;4979902;28;20500;-48
2023/01/07 05:24:52;;;;;;;10.30;8.65;;;9.80;99.90;;;;;;4980555;28;20485;-48
2023/01/07 05:27:18;;;;;;;10.88;8.68;;;9.80;99.90;;;;;;4986122;28;21275;-48
2023/01/07 05:29:43;;;;;;;11.55;8.98;;;9.80;99.90;;;;;;4979432;28;20039;-48
2023/01/07 05:32:09;;;;;;;9.88;8.35;;;9.70;99.90;;;;;;4979711;28;20129;-48
2023/01/07 05:34:34;;;;;;;9.43;8.48;;;9.70;99.90;;;;;;4981085;28;20397;-50
2023/01/07 05:37:00;;;;;;;12.93;8.50;;;9.60;99.90;;;;;;4983029;28;20417;-48
2023/01/07 05:39:26;;;;;;;9.55;8.55;;;9.60;99.90;;;;;;4986183;28;20080;-48
2023/01/07 05:41:51;;;;;;;11.40;8.23;;;9.60;99.90;;;;;;4984769;28;20151;-48
2023/01/07 05:44:17;;;;;;;12.88;8.50;;;9.50;99.90;;;;;;4986038;28;20039;-48
2023/01/07 05:46:42;;;;;;;10.40;8.00;;;9.50;99.90;;;;;;4988266;28;20045;-50
2023/01/07 05:49:08;;;;;;;10.63;8.18;;;9.40;99.90;;;;;;4987043;28;20477;-50
2023/01/07 05:51:34;;;;;;;11.35;8.63;;;9.40;99.90;;;;;;4985322;28;20038;-48
2023/01/07 05:54:00;;;;;;;9.05;8.05;;;9.40;99.90;;;;;;4994084;28;20500;-48
2023/01/07 05:56:25;;;;;;;10.00;8.63;;;9.30;99.90;;;;;;4992647;28;20038;-49
2023/01/07 05:58:51;;;;;;;9.95;8.80;;;9.30;99.90;;;;;;4989153;28;20073;-48
2023/01/07 06:01:19;;;;;;;8.93;8.02;;;9.30;99.90;;;;;;4982346;28;20043;-49
2023/01/07 06:03:45;;;;;;;12.38;8.82;;;9.40;99.90;;;;;;4992626;28;20034;-48
2023/01/07 06:06:10;;;;;;;11.23;8.35;;;9.40;99.90;;;;;;4988489;28;20036;-50
2023/01/07 06:08:37;;;;;;;10.43;8.55;;;9.40;99.90;;;;;;5000638;28;20086;-48
2023/01/07 06:11:04;;;;;;;9.63;8.63;;;9.50;99.90;;;;;;4985801;28;20042;-48
2023/01/07 06:13:30;;;;;;;8.77;7.88;;;9.50;99.90;;;;;;4978677;28;20058;-48
2023/01/07 06:16:03;;;;;;;8.98;8.00;;;9.50;99.90;;;;;;4981356;28;20053;-48
2023/01/07 06:18:29;;;;;;;8.73;7.90;;;9.50;99.90;;;;;;4982545;28;20377;-47
2023/01/07 06:20:55;;;;;;;9.18;8.20;;;9.50;99.90;;;;;;4983318;28;20118;-47
2023/01/07 06:23:20;;;;;;;10.10;7.90;;;9.50;99.90;;;;;;4983686;28;20042;-49
2023/01/07 06:25:46;;;;;;;8.93;7.97;;;9.50;99.90;;;;;;4986578;28;20472;-48
2023/01/07 06:28:11;;;;;;;9.50;7.85;;;9.50;99.90;;;;;;4979378;28;20057;-50
2023/01/07 06:30:37;;;;;;;11.30;8.48;;;9.50;99.90;;;;;;4977895;28;20061;-49
2023/01/07 06:33:04;;;;;;;8.18;6.97;;;9.50;99.90;;;;;;4962387;28;20573;-48
2023/01/07 06:35:30;;;;;;;9.00;7.43;;;9.50;99.90;;;;;;4982940;28;20050;-48
2023/01/07 06:37:56;;;;;;;9.02;7.50;;;9.40;99.90;;;;;;4982222;28;20053;-49
2023/01/07 06:40:22;;;;;;;8.98;7.47;;;9.40;99.90;;;;;;4981005;28;20500;-48
2023/01/07 06:42:47;;;;;;;7.85;7.00;;;9.30;99.90;;;;;;4980554;28;20085;-48
2023/01/07 06:45:13;;;;;;;7.57;6.85;;;9.40;99.90;;;;;;4982699;28;20042;-47
2023/01/07 06:47:39;;;;;;;9.65;7.45;;;9.40;99.90;;;;;;4982454;28;20055;-48
2023/01/07 06:50:05;;;;;;;10.13;7.28;;;9.40;99.90;;;;;;4983368;28;20046;-50
2023/01/07 06:52:31;;;;;;;8.70;7.00;;;9.40;99.90;;;;;;4981596;28;20125;-49
2023/01/07 06:54:56;;;;;;;7.88;7.00;;;9.30;99.90;;;;;;4985598;28;20097;-48
2023/01/07 06:57:22;;;;;;;7.75;7.03;;;9.40;99.90;;;;;;4978470;28;20039;-48
2023/01/07 06:59:48;;;;;;;7.75;6.93;;;9.30;99.90;;;;;;4977958;28;20043;-52
2023/01/07 07:02:21;;;;;;;10.38;7.13;;;9.30;99.90;;;;;;4980959;28;20396;-48
2023/01/07 07:04:47;;;;;;;7.45;6.68;;;9.20;99.90;;;;;;4983718;28;20129;-49
2023/01/07 07:07:13;;;;;;;8.05;6.97;;;9.20;99.90;;;;;;4978671;28;20125;-50
2023/01/07 07:09:38;;;;;;;8.13;7.35;;;9.20;99.90;;;;;;4977833;28;20042;-49
2023/01/07 07:12:04;;;;;;;8.85;6.90;;;9.10;99.90;;;;;;4981746;28;20082;-48
2023/01/07 07:14:30;;;;;;;8.32;7.13;;;9.10;99.90;;;;;;4986623;28;20061;-48
2023/01/07 07:16:56;;;;;;;9.63;7.20;;;9.10;99.90;;;;;;4989162;28;20709;-49
2023/01/07 07:19:21;;;;;;;7.65;6.80;;;9.00;99.90;;;;;;4983174;28;20397;-49
2023/01/07 07:21:47;;;;;;;8.68;7.22;;;9.00;99.90;;;;;;4986919;28;20038;-48
2023/01/07 07:24:13;;;;;;;9.27;7.35;;;8.90;99.90;;;;;;4980194;28;20053;-50
2023/01/07 07:26:38;;;;;;;10.15;6.97;;;8.90;99.90;;;;;;4981703;28;20478;-51
2023/01/07 07:29:04;;;;;;;8.93;7.25;;;8.90;99.90;;;;;;4985835;28;20129;-49
2023/01/07 07:31:30;;;;;;;9.38;7.05;;;8.90;99.90;;;;;;4984154;28;20089;-48
2023/01/07 07:33:55;;;;;;;9.77;8.13;;;8.90;99.90;;;;;;4981900;28;20121;-49
2023/01/07 07:36:21;;;;;;;8.13;7.32;;;8.90;99.90;;;;;;4979941;28;20184;-49
2023/01/07 07:38:47;;;;;;;10.65;7.80;;;9.00;99.90;;;;;;4986487;28;20125;-51
2023/01/07 07:41:12;;;;;;;8.32;7.43;;;9.00;99.90;;;;;;4983319;28;20465;-51
2023/01/07 07:43:38;;;;;;;8.90;7.47;;;9.00;99.90;;;;;;4982963;28;20043;-48
2023/01/07 07:46:04;;;;;;;8.82;7.47;;;9.00;99.90;;;;;;4984439;28;20038;-48
2023/01/07 07:48:29;;;;;;;8.95;7.65;;;9.10;99.90;;;;;;4983838;28;20481;-52
2023/01/07 07:50:55;;;;;;;10.02;7.20;;;9.00;99.90;;;;;;4983245;28;20165;-49
2023/01/07 07:53:20;;;;;;;7.13;6.53;;;9.10;99.90;;;;;;4982596;28;20070;-48
2023/01/07 07:55:46;;;;;;;8.02;6.30;;;9.10;99.90;;;;;;4981851;28;20049;-47
2023/01/07 07:58:13;;;;;;;8.02;6.10;;;9.10;99.90;;;;;;4983692;28;20053;-48
2023/01/07 08:00:39;;;;;;;8.43;6.97;;;9.00;99.90;;;;;;4981792;28;20074;-48
2023/01/07 08:03:04;;;;;;;9.35;6.15;;;9.00;99.90;;;;;;4983499;28;20484;-48
2023/01/07 08:05:30;;;;;;;10.35;6.78;;;9.00;99.90;;;;;;4981430;28;20050;-49
2023/01/07 08:07:57;;;;;;;6.53;5.93;;;9.00;99.90;;;;;;4976619;28;20050;-49
2023/01/07 08:10:24;;;;;;;7.20;6.50;;;9.00;99.90;;;;;;4979213;28;20051;-48
2023/01/07 08:12:50;;;;;;;9.70;6.45;;;9.00;99.90;;;;;;4990116;28;20050;-49
2023/01/07 08:15:16;;;;;;;9.45;6.78;;;8.90;99.90;;;;;;4986699;28;20667;-48
2023/01/07 08:17:42;;;;;;;6.78;6.15;;;8.90;99.90;;;;;;4985170;28;20046;-49
2023/01/07 08:20:08;;;;;;;9.52;6.13;;;8.90;99.90;;;;;;4990042;28;20054;-50
2023/01/07 08:22:34;;;;;;;10.75;6.18;;;8.90;99.90;;;;;;4986653;28;20215;-50
2023/01/07 08:25:00;;;;;;;7.65;6.10;;;8.90;99.90;;;;;;4992983;28;20455;-49
2023/01/07 08:27:26;;;;;;;8.23;5.97;;;9.00;99.90;;;;;;4995042;28;20042;-48
2023/01/07 08:29:53;;;;;;;8.05;6.15;;;9.00;99.90;;;;;;4992426;28;20042;-49
2023/01/07 08:32:19;;;;;;;6.50;5.85;;;9.10;99.90;;;;;;4990071;28;20049;-48
2023/01/07 08:34:44;;;;;;;6.72;6.03;;;9.10;99.90;;;;;;4987955;28;20042;-47
2023/01/07 08:37:10;;;;;;;9.02;5.30;;;9.20;99.90;;;;;;4988396;28;20513;-48
2023/01/07 08:39:36;;;;;;;6.45;5.45;;;9.30;99.90;;;;;;4993531;28;20437;-49
2023/01/07 08:42:01;;;;;;;7.03;5.38;;;9.30;99.90;;;;;;4990173;28;20415;-51
2023/01/07 08:44:27;;;;;;;6.70;5.30;;;9.40;99.90;;;;;;4992665;28;20038;-48
2023/01/07 08:46:53;;;;;;;5.47;4.63;;;9.40;99.90;;;;;;4992988;28;20042;-48
2023/01/07 08:49:19;;;;;;;5.95;4.88;;;9.50;99.90;;;;;;4989671;28;20038;-48
2023/01/07 08:51:44;;;;;;;7.03;4.60;;;9.50;99.90;;;;;;4986348;28;20042;-49
2023/01/07 08:54:10;;;;;;;5.00;4.60;;;9.50;99.90;;;;;;4990770;28;20042;-48
2023/01/07 08:56:35;;;;;;;7.70;4.80;;;9.60;99.90;;;;;;4978508;28;20050;-48
2023/01/07 08:59:01;;;;;;;6.28;4.47;;;9.60;99.90;;;;;;4987267;28;20046;-48
2023/01/07 09:01:27;;;;;;;4.90;4.38;;;9.70;99.90;;;;;;4986466;28;20128;-48
2023/01/07 09:03:52;;;;;;;5.35;4.18;;;9.70;99.90;;;;;;4990010;28;20034;-47
2023/01/07 09:06:18;;;;;;;6.28;4.57;;;9.70;99.90;;;;;;4990998;28;20121;-48
2023/01/07 09:08:44;;;;;;;4.80;3.85;;;9.70;99.90;;;;;;4989562;28;20043;-48
2023/01/07 09:11:10;;;;;;;4.07;3.67;;;9.70;99.90;;;;;;4989337;28;20069;-49
2023/01/07 09:13:35;;;;;;;4.88;3.60;;;9.70;99.90;;;;;;4989662;28;20093;-47
2023/01/07 09:16:01;;;;;;;4.75;3.67;;;9.70;99.90;;;;;;4989964;28;21393;-50
2023/01/07 09:18:26;;;;;;;5.20;3.55;;;9.80;99.90;;;;;;4987771;28;20047;-50
2023/01/07 09:20:52;;;;;;;5.53;3.63;;;9.80;99.90;;;;;;4990090;28;20041;-48
2023/01/07 09:23:18;;;;;;;5.60;3.25;;;9.90;99.90;;;;;;4987059;28;20039;-49
2023/01/07 09:25:43;;;;;;;4.38;3.58;;;9.90;99.90;;;;;;4985562;28;20369;-47
2023/01/07 09:28:09;;;;;;;4.40;3.30;;;10.00;99.90;;;;;;4985696;28;20436;-48
2023/01/07 09:30:36;;;;;;;5.00;3.20;;;;;;;;;;4992224;28;20467;-49
2023/01/07 09:33:02;;;;;;;2.88;2.67;;;10.10;99.90;;;;;;4994270;28;20058;-49
2023/01/07 09:35:28;;;;;;;3.95;3.10;;;10.10;99.90;;;;;;4994169;28;20039;-48
2023/01/07 09:37:53;;;;;;;5.50;2.60;;;10.20;99.90;;;;;;4992992;28;20129;-48
2023/01/07 09:40:31;;;;;;;3.25;2.95;;;10.20;99.90;;;;;;4991637;28;20046;-48
2023/01/07 09:43:11;;;;;;;5.85;2.85;;;10.30;99.90;;;;;;4987526;28;20094;-48
2023/01/07 09:45:46;;;;;;;3.85;2.72;;;10.40;99.90;;;;;;4989602;28;20042;-48
2023/01/07 09:48:27;;;;;;;6.25;2.70;;;10.40;99.90;;;;;;4990092;28;20046;-49
2023/01/07 09:51:14;;;;;;;4.53;2.50;;;10.50;99.90;;;;;;4985095;28;20041;-48
2023/01/07 09:53:51;;;;;;;4.47;2.10;;;10.50;99.90;;;;;;4985251;28;20130;-48
2023/01/07 09:56:22;;;;;;;3.22;2.40;;;10.60;99.90;;;;;;4979247;28;20516;-48
2023/01/07 09:58:48;;;;;;;5.30;2.28;;;10.60;99.90;;;;;;4987221;28;20046;-50
2023/01/07 10:01:23;;;;;;;3.75;2.40;;;10.60;99.90;;;;;;4984065;28;20043;-49
2023/01/07 10:04:07;;;;;;;2.75;2.30;;;10.70;99.90;;;;;;4988273;28;20068;-48
2023/01/07 10:06:52;;;;;;;3.60;2.10;;;10.70;99.90;;;;;;4985889;28;20053;-49
2023/01/07 10:09:46;;;;;;;4.03;2.08;;;10.70;99.90;;;;;;4982598;28;20241;-47
2023/01/07 10:12:17;;;;;;;3.50;2.30;;;10.70;99.90;;;;;;4984206;28;20046;-47
2023/01/07 10:14:49;;;;;;;3.90;2.50;;;10.70;99.90;;;;;;4986317;28;20086;-48
2023/01/07 10:17:36;;;;;;;2.40;2.03;;;10.70;99.90;;;;;;4987113;28;20457;-48
2023/01/07 10:20:08;;;;;;;2.17;1.80;;;10.70;99.90;;;;;;4987554;28;20049;-49
2023/01/07 10:22:45;;;;;;;2.42;2.00;;;10.80;99.90;;;;;;4988438;28;20129;-48
2023/01/07 10:25:26;;;;;;;2.10;1.88;;;10.80;99.90;;;;;;4985270;28;20633;-48
2023/01/07 10:27:57;;;;;;;2.08;1.88;;;10.80;99.90;;;;;;4988428;28;20457;-48
2023/01/07 10:30:29;;;;;;;2.92;1.98;;;10.80;99.90;;;;;;4986355;28;20508;-48
2023/01/07 10:33:14;;;;;;;2.97;2.22;;;10.80;99.90;;;;;;4985670;28;20042;-48
2023/01/07 10:35:40;;;;;;;2.92;1.90;;;10.80;99.90;;;;;;4983522;28;20050;-50
2023/01/07 10:38:13;;;;;;;2.50;2.00;;;10.80;99.90;;;;;;4984526;28;20408;-48
2023/01/07 10:40:44;;;;;;;2.45;2.05;;;10.80;99.90;;;;;;4980135;28;20101;-49
2023/01/07 10:43:36;;;;;;;3.22;1.95;;;10.80;99.90;;;;;;4983290;28;20404;-49
2023/01/07 10:46:16;;;;;;;2.33;1.83;;;10.80;99.90;;;;;;4985860;28;20097;-48
2023/01/07 10:49:16;;;;;;;2.70;2.10;;;10.80;99.90;;;;;;4987196;28;20492;-49
2023/01/07 10:51:49;;;;;;;2.55;1.90;;;10.80;99.90;;;;;;4981288;28;20046;-51
2023/01/07 10:54:27;;;;;;;2.53;2.10;;;10.90;99.90;;;;;;4986086;28;20505;-49
2023/01/07 10:57:09;;;;;;;2.20;1.92;;;10.90;99.90;;;;;;4984886;28;20050;-51
2023/01/07 10:59:35;;;;;;;4.70;2.00;;;10.90;99.90;;;;;;4985522;28;20372;-50
2023/01/07 11:02:02;;;;;;;3.95;2.25;;;10.90;99.90;;;;;;4985497;28;20444;-48
2023/01/07 11:04:27;;;;;;;2.13;1.88;;;10.90;99.90;;;;;;4988623;28;20085;-49
2023/01/07 11:06:57;;;;;;;3.38;2.33;;;10.90;99.90;;;;;;4986111;28;20043;-49
2023/01/07 11:09:29;;;;;;;2.05;1.95;;;10.90;99.90;;;;;;4984895;28;20136;-53
2023/01/07 11:12:00;;;;;;;4.07;2.20;;;10.90;99.90;;;;;;4986094;28;20058;-48
2023/01/07 11:14:33;;;;;;;2.38;2.17;;;10.90;99.90;;;;;;4985114;28;20057;-51
2023/01/07 11:17:09;;;;;;;3.08;2.08;;;10.90;99.90;;;;;;4984365;28;20116;-48
2023/01/07 11:19:47;;;;;;;2.10;2.00;;;10.90;99.90;;;;;;4988988;28;20070;-50
2023/01/07 11:22:25;;;;;;;3.80;2.20;;;10.90;99.90;;;;;;4987187;28;20042;-49
2023/01/07 11:24:56;;;;;;;2.15;1.98;;;10.90;99.90;;;;;;4964758;28;20133;-50
2023/01/07 11:27:24;;;;;;;3.72;2.13;;;10.90;99.90;;;;;;4990130;28;20071;-48
2023/01/07 11:30:20;;;;;;;3.03;2.20;;;10.90;99.90;;;;;;4988029;28;20524;-51
2023/01/07 11:32:55;;;;;;;2.85;1.95;;;11.00;99.90;;;;;;4985965;28;20042;-53
2023/01/07 11:35:22;;;;;;;1.88;1.77;;;11.00;99.90;;;;;;4985510;28;20636;-52
2023/01/07 11:37:49;;;;;;;2.30;2.00;;;11.00;99.90;;;;;;4982247;28;20050;-48
2023/01/07 11:40:14;;;;;;;2.78;2.20;;;11.00;99.90;;;;;;4985820;28;20035;-48
2023/01/07 11:42:47;;;;;;;2.80;2.10;;;11.00;99.90;;;;;;4984890;28;20050;-48
2023/01/07 11:45:22;;;;;;;2.17;1.98;;;11.10;99.90;;;;;;4987605;28;20047;-48
2023/01/07 11:47:47;;;;;;;2.33;1.80;;;11.10;99.90;;;;;;4985866;28;20046;-49
2023/01/07 11:50:22;;;;;;;2.00;1.70;;;11.20;99.90;;;;;;4984991;28;20559;-49
2023/01/07 11:52:55;;;;;;;2.25;1.90;;;11.20;99.90;;;;;;4986289;28;20089;-50
2023/01/07 11:55:22;;;;;;;2.25;1.90;;;11.30;99.90;;;;;;4987896;28;20058;-48
2023/01/07 11:57:55;;;;;;;1.80;1.67;;;11.30;99.90;;;;;;4991434;28;20108;-49
2023/01/07 12:00:22;;;;;;;2.05;1.60;;;11.20;99.90;;;;;;4985886;28;20125;-50
2023/01/07 12:03:02;;;;;;;2.67;1.52;;;11.20;99.90;;;;;;4995507;28;20146;-52
2023/01/07 12:05:29;;;;;;;2.80;1.60;;;11.30;99.90;;;;;;4979911;28;20057;-50
2023/01/07 12:07:56;;;;;;;1.75;1.50;;;11.30;99.90;;;;;;4991577;28;20069;-49
2023/01/07 12:10:32;;;;;;;2.30;2.10;;;11.30;99.90;;;;;;4992532;28;20109;-51
2023/01/07 12:13:00;;;;;;;1.92;1.58;;;11.40;99.90;;;;;;4991692;28;20489;-48
2023/01/07 12:15:50;;;;;;;2.00;1.70;;;11.50;99.90;;;;;;4986530;28;20035;-51
2023/01/07 12:18:43;;;;;;;2.63;1.60;;;11.50;99.90;;;;;;4983903;28;20065;-49
2023/01/07 12:21:27;;;;;;;2.15;1.63;;;11.40;99.90;;;;;;4988038;28;20046;-48
2023/01/07 12:24:10;;;;;;;3.67;1.20;;;11.50;99.90;;;;;;4984448;28;20469;-51
2023/01/07 12:26:55;;;;;;;1.83;1.08;;;11.40;99.90;;;;;;4988833;28;20175;-52
2023/01/07 12:29:39;;;;;;;2.95;1.35;;;11.50;99.90;;;;;;4992798;28;20097;-48
2023/01/07 12:32:28;;;;;;;1.48;1.38;;;11.50;99.90;;;;;;4994772;28;20114;-50
2023/01/07 12:34:58;;;;;;;1.85;1.33;;;11.60;99.90;;;;;;4971694;28;20077;-49
2023/01/07 12:37:31;;;;;;;3.03;1.55;;;11.60;99.90;;;;;;4995180;28;20046;-48
2023/01/07 12:40:45;;;;;;;1.40;1.30;;;11.50;99.90;;;;;;4986597;28;20035;-49
2023/01/07 12:43:24;;;;;;;1.83;1.35;;;11.50;99.90;;;;;;4961696;28;20054;-48
2023/01/07 12:46:15;;;;;;;1.75;1.38;;;11.50;99.90;;;;;;4989122;28;20047;-48
2023/01/07 12:48:51;;;;;;;1.98;1.42;;;11.40;99.90;;;;;;4979930;28;20137;-48
2023/01/07 12:51:25;;;;;;;3.75;1.63;;;11.40;99.90;;;;;;4963959;28;20053;-48
2023/01/07 12:54:00;;;;;;;2.35;1.38;;;11.40;99.90;;;;;;4990920;28;20122;-48
2023/01/07 12:56:38;;;;;;;2.60;1.77;;;11.40;99.90;;;;;;4991344;28;20583;-49
2023/01/07 12:59:11;;;;;;;;;;;11.40;99.90;;;;;;4986317;28;20042;-47
2023/01/07 13:01:56;;;;;;;2.45;1.83;;;11.40;99.90;;;;;;4989562;28;19989;-50